KLM57D EHAM-EDDF
Flight info
| Callsign | KLM57D |
|---|---|
| Flight time | 0h 57m |
| Altitude | 33000 |
| Route | EDUPO Z739 MISGO/N0408F230 T911 TANJO DCT ASBON DCT ROLIS ROLIS5A |
| Aircraft | E75L/M-SDE3GILORVW/S |
Departure
| Time | 2026-05-06 11:04 |
|---|---|
| Airport | Amsterdam Airport Schiphol (EHAM) |
Arrival
| Time | 2026-05-06 12:02 |
|---|---|
| Airport | Frankfurt Main Airport (EDDF) |
| Time | Latitude | Longitude | Altitude | Speed | Heading |
|---|---|---|---|---|---|
| 2026-05-06 10:32 | 52.30177 | 4.75566 | -2 ft | 0 kts | 59° |
| 2026-05-06 10:51 | 52.30174 | 4.75559 | -2 ft | 2 kts | 59° |
| 2026-05-06 10:51 | 52.30166 | 4.75538 | -2 ft | 2 kts | 59° |
| 2026-05-06 10:51 | 52.30159 | 4.75518 | -2 ft | 1 kts | 75° |
| 2026-05-06 10:52 | 52.30162 | 4.75495 | -2 ft | 2 kts | 128° |
| 2026-05-06 10:52 | 52.30169 | 4.75485 | -2 ft | 0 kts | 155° |
| 2026-05-06 10:57 | 52.30167 | 4.75487 | -2 ft | 1 kts | 150° |
| 2026-05-06 10:57 | 52.30146 | 4.75509 | -2 ft | 5 kts | 144° |
| 2026-05-06 10:57 | 52.30103 | 4.75555 | -2 ft | 8 kts | 149° |
| 2026-05-06 10:58 | 52.30051 | 4.75605 | -2 ft | 9 kts | 148° |
| 2026-05-06 10:58 | 52.29997 | 4.75663 | -2 ft | 6 kts | 147° |
| 2026-05-06 10:58 | 52.29960 | 4.75646 | -2 ft | 6 kts | 237° |
| 2026-05-06 10:58 | 52.29933 | 4.75577 | -2 ft | 7 kts | 237° |
| 2026-05-06 10:59 | 52.29899 | 4.75487 | -2 ft | 10 kts | 238° |
| 2026-05-06 10:59 | 52.29853 | 4.75367 | -2 ft | 14 kts | 239° |
| 2026-05-06 10:59 | 52.29839 | 4.75209 | -2 ft | 15 kts | 294° |
| 2026-05-06 10:59 | 52.29908 | 4.75072 | -2 ft | 16 kts | 308° |
| 2026-05-06 11:00 | 52.29993 | 4.74917 | -2 ft | 19 kts | 313° |
| 2026-05-06 11:00 | 52.30082 | 4.74749 | -2 ft | 20 kts | 311° |
| 2026-05-06 11:00 | 52.30159 | 4.74607 | -2 ft | 16 kts | 311° |
| 2026-05-06 11:00 | 52.30235 | 4.74460 | -2 ft | 17 kts | 314° |
| 2026-05-06 11:01 | 52.30299 | 4.74345 | -2 ft | 12 kts | 310° |
| 2026-05-06 11:01 | 52.30359 | 4.74234 | -2 ft | 13 kts | 313° |
| 2026-05-06 11:01 | 52.30417 | 4.74127 | -2 ft | 10 kts | 309° |
| 2026-05-06 11:01 | 52.30419 | 4.74019 | -2 ft | 10 kts | 240° |
| 2026-05-06 11:02 | 52.30407 | 4.73932 | -2 ft | 3 kts | 272° |
| 2026-05-06 11:02 | 52.30407 | 4.73918 | -2 ft | 0 kts | 273° |
| 2026-05-06 11:02 | 52.30407 | 4.73916 | -2 ft | 0 kts | 273° |
| 2026-05-06 11:02 | 52.30409 | 4.73879 | -2 ft | 6 kts | 273° |
| 2026-05-06 11:03 | 52.30415 | 4.73775 | -2 ft | 9 kts | 294° |
| 2026-05-06 11:03 | 52.30484 | 4.73757 | -2 ft | 20 kts | 4° |
| 2026-05-06 11:03 | 52.30855 | 4.73797 | -2 ft | 84 kts | 3° |
| 2026-05-06 11:03 | 52.31629 | 4.73864 | 0 ft | 135 kts | 1° |
| 2026-05-06 11:04 | 52.32616 | 4.73887 | 279 ft | 152 kts | 4° |
| 2026-05-06 11:04 | 52.33821 | 4.74061 | 322 ft | 189 kts | 14° |
| 2026-05-06 11:04 | 52.34998 | 4.74854 | 939 ft | 176 kts | 27° |
| 2026-05-06 11:04 | 52.36126 | 4.75679 | 610 ft | 179 kts | 27° |
| 2026-05-06 11:05 | 52.37269 | 4.76516 | 1239 ft | 176 kts | 24° |
| 2026-05-06 11:05 | 52.38237 | 4.77625 | 1791 ft | 181 kts | 45° |
| 2026-05-06 11:05 | 52.39142 | 4.79147 | 2210 ft | 195 kts | 45° |
| 2026-05-06 11:05 | 52.40106 | 4.80772 | 2788 ft | 201 kts | 45° |
| 2026-05-06 11:06 | 52.41014 | 4.82504 | 3351 ft | 209 kts | 63° |
| 2026-05-06 11:06 | 52.41132 | 4.84903 | 3855 ft | 227 kts | 104° |
| 2026-05-06 11:06 | 52.40166 | 4.87011 | 4465 ft | 242 kts | 138° |
| 2026-05-06 11:06 | 52.38804 | 4.88641 | 5118 ft | 247 kts | 140° |
| 2026-05-06 11:07 | 52.37369 | 4.90344 | 5502 ft | 266 kts | 141° |
| 2026-05-06 11:07 | 52.35837 | 4.92158 | 6066 ft | 277 kts | 141° |
| 2026-05-06 11:07 | 52.34282 | 4.94089 | 6805 ft | 280 kts | 134° |
| 2026-05-06 11:07 | 52.33022 | 4.96468 | 7589 ft | 279 kts | 122° |
| 2026-05-06 11:08 | 52.32004 | 4.99121 | 8367 ft | 280 kts | 117° |
| 2026-05-06 11:08 | 52.31087 | 5.01946 | 9122 ft | 284 kts | 115° |
| 2026-05-06 11:08 | 52.30225 | 5.04841 | 9860 ft | 288 kts | 114° |
| 2026-05-06 11:08 | 52.29374 | 5.07823 | 10591 ft | 294 kts | 113° |
| 2026-05-06 11:09 | 52.28516 | 5.10884 | 11243 ft | 303 kts | 113° |
| 2026-05-06 11:09 | 52.27633 | 5.14062 | 11801 ft | 315 kts | 113° |
| 2026-05-06 11:09 | 52.26720 | 5.17353 | 12372 ft | 326 kts | 113° |
| 2026-05-06 11:09 | 52.25780 | 5.20749 | 13036 ft | 333 kts | 113° |
| 2026-05-06 11:10 | 52.24821 | 5.24209 | 13779 ft | 339 kts | 114° |
| 2026-05-06 11:10 | 52.23618 | 5.27518 | 14567 ft | 342 kts | 124° |
| 2026-05-06 11:10 | 52.22249 | 5.30678 | 15386 ft | 345 kts | 125° |
| 2026-05-06 11:10 | 52.20867 | 5.33862 | 16161 ft | 347 kts | 125° |
| 2026-05-06 11:11 | 52.19459 | 5.37105 | 16912 ft | 350 kts | 125° |
| 2026-05-06 11:11 | 52.18050 | 5.40344 | 17621 ft | 353 kts | 126° |
| 2026-05-06 11:11 | 52.16639 | 5.43583 | 18299 ft | 356 kts | 126° |
| 2026-05-06 11:11 | 52.15202 | 5.46880 | 18970 ft | 359 kts | 126° |
| 2026-05-06 11:12 | 52.13771 | 5.50157 | 19610 ft | 362 kts | 126° |
| 2026-05-06 11:12 | 52.12302 | 5.53517 | 20253 ft | 365 kts | 126° |
| 2026-05-06 11:12 | 52.10822 | 5.56897 | 20870 ft | 368 kts | 126° |
| 2026-05-06 11:12 | 52.09334 | 5.60292 | 21483 ft | 371 kts | 126° |
| 2026-05-06 11:13 | 52.07848 | 5.63678 | 22081 ft | 374 kts | 126° |
| 2026-05-06 11:13 | 52.06315 | 5.67145 | 22667 ft | 376 kts | 129° |
| 2026-05-06 11:13 | 52.04639 | 5.70368 | 23234 ft | 378 kts | 132° |
| 2026-05-06 11:13 | 52.03163 | 5.73900 | 23755 ft | 382 kts | 112° |
| 2026-05-06 11:14 | 52.02683 | 5.78126 | 24292 ft | 386 kts | 88° |
| 2026-05-06 11:14 | 52.03307 | 5.82376 | 24862 ft | 389 kts | 69° |
| 2026-05-06 11:14 | 52.03927 | 5.86601 | 25403 ft | 389 kts | 90° |
| 2026-05-06 11:14 | 52.03438 | 5.90906 | 25908 ft | 390 kts | 114° |
| 2026-05-06 11:15 | 52.01895 | 5.94497 | 26420 ft | 391 kts | 138° |
| 2026-05-06 11:15 | 51.99578 | 5.96768 | 26910 ft | 394 kts | 159° |
| 2026-05-06 11:15 | 51.96994 | 5.98227 | 27431 ft | 396 kts | 160° |
| 2026-05-06 11:15 | 51.94403 | 5.99661 | 27938 ft | 398 kts | 160° |
| 2026-05-06 11:16 | 51.91770 | 6.01115 | 28433 ft | 400 kts | 160° |
| 2026-05-06 11:16 | 51.89141 | 6.02571 | 28913 ft | 402 kts | 159° |
| 2026-05-06 11:16 | 51.86563 | 6.04529 | 29364 ft | 404 kts | 148° |
| 2026-05-06 11:16 | 51.84304 | 6.07178 | 29819 ft | 405 kts | 137° |
| 2026-05-06 11:17 | 51.82357 | 6.10510 | 30276 ft | 406 kts | 127° |
| 2026-05-06 11:17 | 51.80732 | 6.14247 | 30686 ft | 408 kts | 126° |
| 2026-05-06 11:17 | 51.78983 | 6.17820 | 31086 ft | 411 kts | 129° |
| 2026-05-06 11:17 | 51.77132 | 6.21333 | 31434 ft | 415 kts | 130° |
| 2026-05-06 11:18 | 51.75230 | 6.24851 | 31758 ft | 418 kts | 130° |
| 2026-05-06 11:18 | 51.73317 | 6.28353 | 32097 ft | 420 kts | 131° |
| 2026-05-06 11:18 | 51.71382 | 6.31882 | 32497 ft | 421 kts | 131° |
| 2026-05-06 11:18 | 51.69442 | 6.35414 | 32799 ft | 411 kts | 131° |
| 2026-05-06 11:19 | 51.67571 | 6.38813 | 32831 ft | 413 kts | 131° |
| 2026-05-06 11:19 | 51.65633 | 6.42330 | 32845 ft | 424 kts | 131° |
| 2026-05-06 11:19 | 51.63676 | 6.45874 | 32859 ft | 434 kts | 131° |
| 2026-05-06 11:20 | 51.59580 | 6.53287 | 32916 ft | 450 kts | 131° |
| 2026-05-06 11:20 | 51.55430 | 6.60773 | 32916 ft | 448 kts | 131° |
| 2026-05-06 11:21 | 51.51350 | 6.68110 | 32910 ft | 442 kts | 132° |
| 2026-05-06 11:21 | 51.47211 | 6.75535 | 32734 ft | 445 kts | 132° |
| 2026-05-06 11:21 | 51.45132 | 6.79254 | 32233 ft | 443 kts | 131° |
| 2026-05-06 11:22 | 51.43104 | 6.82877 | 31742 ft | 437 kts | 131° |
| 2026-05-06 11:22 | 51.41074 | 6.86493 | 31257 ft | 431 kts | 132° |
| 2026-05-06 11:22 | 51.38889 | 6.89771 | 30767 ft | 428 kts | 138° |
| 2026-05-06 11:22 | 51.36664 | 6.92844 | 30287 ft | 426 kts | 138° |
| 2026-05-06 11:23 | 51.34404 | 6.95964 | 29814 ft | 424 kts | 138° |
| 2026-05-06 11:23 | 51.32201 | 6.99001 | 29347 ft | 422 kts | 138° |
| 2026-05-06 11:23 | 51.29956 | 7.02094 | 28870 ft | 420 kts | 138° |
| 2026-05-06 11:23 | 51.27768 | 7.05102 | 28404 ft | 418 kts | 138° |
| 2026-05-06 11:24 | 51.25574 | 7.08115 | 27939 ft | 416 kts | 139° |
| 2026-05-06 11:24 | 51.23379 | 7.11128 | 27477 ft | 413 kts | 139° |
| 2026-05-06 11:24 | 51.21212 | 7.14097 | 27025 ft | 412 kts | 139° |
| 2026-05-06 11:24 | 51.19048 | 7.17057 | 26569 ft | 409 kts | 139° |
| 2026-05-06 11:25 | 51.16902 | 7.19989 | 26112 ft | 407 kts | 139° |
| 2026-05-06 11:25 | 51.14767 | 7.22903 | 25663 ft | 404 kts | 139° |
| 2026-05-06 11:25 | 51.12631 | 7.25815 | 25216 ft | 403 kts | 140° |
| 2026-05-06 11:25 | 51.10325 | 7.28375 | 24783 ft | 400 kts | 148° |
| 2026-05-06 11:26 | 51.07981 | 7.30671 | 24334 ft | 398 kts | 148° |
| 2026-05-06 11:26 | 51.06244 | 7.32369 | 24008 ft | 396 kts | 148° |
| 2026-05-06 11:26 | 51.05327 | 7.33266 | 23836 ft | 395 kts | 148° |
| 2026-05-06 11:27 | 51.02976 | 7.35560 | 23401 ft | 393 kts | 148° |
| 2026-05-06 11:27 | 51.00680 | 7.37798 | 22970 ft | 390 kts | 149° |
| 2026-05-06 11:27 | 50.98368 | 7.40051 | 22536 ft | 388 kts | 149° |
| 2026-05-06 11:27 | 50.96067 | 7.42288 | 22109 ft | 385 kts | 149° |
| 2026-05-06 11:28 | 50.93759 | 7.44322 | 21667 ft | 382 kts | 160° |
| 2026-05-06 11:28 | 50.91246 | 7.45672 | 21270 ft | 379 kts | 163° |
| 2026-05-06 11:28 | 50.88747 | 7.46946 | 20845 ft | 377 kts | 163° |
| 2026-05-06 11:28 | 50.86255 | 7.48210 | 20434 ft | 374 kts | 163° |
| 2026-05-06 11:29 | 50.83761 | 7.49472 | 20011 ft | 372 kts | 163° |
| 2026-05-06 11:29 | 50.81336 | 7.50697 | 19604 ft | 369 kts | 163° |
| 2026-05-06 11:29 | 50.78885 | 7.51933 | 19197 ft | 366 kts | 163° |
| 2026-05-06 11:29 | 50.76481 | 7.53145 | 18793 ft | 364 kts | 163° |
| 2026-05-06 11:30 | 50.74078 | 7.54354 | 18402 ft | 361 kts | 164° |
| 2026-05-06 11:30 | 50.71759 | 7.55825 | 18000 ft | 361 kts | 152° |
| 2026-05-06 11:30 | 50.69625 | 7.57825 | 17606 ft | 359 kts | 150° |
| 2026-05-06 11:30 | 50.67487 | 7.59855 | 17199 ft | 356 kts | 151° |
| 2026-05-06 11:31 | 50.65369 | 7.61867 | 16807 ft | 354 kts | 151° |
| 2026-05-06 11:31 | 50.63264 | 7.63863 | 16422 ft | 352 kts | 151° |
| 2026-05-06 11:31 | 50.61140 | 7.65877 | 16019 ft | 350 kts | 152° |
| 2026-05-06 11:31 | 50.59011 | 7.67893 | 15624 ft | 348 kts | 152° |
| 2026-05-06 11:32 | 50.56915 | 7.69876 | 15232 ft | 347 kts | 152° |
| 2026-05-06 11:32 | 50.54828 | 7.71848 | 14851 ft | 345 kts | 152° |
| 2026-05-06 11:32 | 50.52783 | 7.73778 | 14462 ft | 343 kts | 152° |
| 2026-05-06 11:32 | 50.50748 | 7.75698 | 14079 ft | 341 kts | 152° |
| 2026-05-06 11:33 | 50.48730 | 7.77599 | 13713 ft | 339 kts | 152° |
| 2026-05-06 11:33 | 50.47769 | 7.78503 | 13536 ft | 338 kts | 152° |
| 2026-05-06 11:33 | 50.47008 | 7.79219 | 13399 ft | 338 kts | 152° |
| 2026-05-06 11:34 | 50.45017 | 7.81092 | 13026 ft | 335 kts | 152° |
| 2026-05-06 11:34 | 50.44215 | 7.81846 | 12877 ft | 335 kts | 152° |
| 2026-05-06 11:35 | 50.42622 | 7.83617 | 12689 ft | 333 kts | 145° |
| 2026-05-06 11:35 | 50.41163 | 7.85427 | 12668 ft | 335 kts | 144° |
| 2026-05-06 11:36 | 50.40505 | 7.86243 | 12576 ft | 335 kts | 144° |
| 2026-05-06 11:36 | 50.38668 | 7.88522 | 12223 ft | 335 kts | 144° |
| 2026-05-06 11:36 | 50.36869 | 7.90753 | 11876 ft | 333 kts | 144° |
| 2026-05-06 11:36 | 50.36599 | 7.91088 | 11822 ft | 333 kts | 144° |
| 2026-05-06 11:37 | 50.35968 | 7.91871 | 11693 ft | 332 kts | 144° |
| 2026-05-06 11:37 | 50.34173 | 7.94093 | 11312 ft | 326 kts | 144° |
| 2026-05-06 11:37 | 50.32412 | 7.96272 | 10954 ft | 318 kts | 144° |
| 2026-05-06 11:37 | 50.30691 | 7.98398 | 10610 ft | 310 kts | 144° |
| 2026-05-06 11:38 | 50.29035 | 8.00443 | 10274 ft | 302 kts | 144° |
| 2026-05-06 11:38 | 50.27405 | 8.02455 | 9943 ft | 295 kts | 145° |
| 2026-05-06 11:38 | 50.25942 | 8.04632 | 9837 ft | 289 kts | 131° |
| 2026-05-06 11:38 | 50.24703 | 8.07123 | 9857 ft | 291 kts | 130° |
| 2026-05-06 11:39 | 50.23469 | 8.09622 | 9840 ft | 292 kts | 130° |
| 2026-05-06 11:39 | 50.22231 | 8.12131 | 9825 ft | 292 kts | 130° |
| 2026-05-06 11:39 | 50.20985 | 8.14657 | 9823 ft | 292 kts | 130° |
| 2026-05-06 11:39 | 50.19747 | 8.17163 | 9852 ft | 292 kts | 130° |
| 2026-05-06 11:40 | 50.18501 | 8.19685 | 9835 ft | 292 kts | 130° |
| 2026-05-06 11:40 | 50.17256 | 8.22204 | 9849 ft | 292 kts | 130° |
| 2026-05-06 11:40 | 50.16009 | 8.24721 | 9859 ft | 292 kts | 130° |
| 2026-05-06 11:40 | 50.14740 | 8.27283 | 9859 ft | 292 kts | 130° |
| 2026-05-06 11:41 | 50.13498 | 8.29787 | 9861 ft | 292 kts | 130° |
| 2026-05-06 11:41 | 50.12250 | 8.32301 | 9866 ft | 293 kts | 130° |
| 2026-05-06 11:41 | 50.11002 | 8.34818 | 9870 ft | 293 kts | 129° |
| 2026-05-06 11:41 | 50.10231 | 8.37733 | 9876 ft | 300 kts | 97° |
| 2026-05-06 11:42 | 50.10509 | 8.40968 | 9902 ft | 306 kts | 71° |
| 2026-05-06 11:42 | 50.11249 | 8.44075 | 9879 ft | 307 kts | 70° |
| 2026-05-06 11:42 | 50.11997 | 8.47191 | 9866 ft | 307 kts | 70° |
| 2026-05-06 11:42 | 50.12748 | 8.50325 | 9867 ft | 308 kts | 70° |
| 2026-05-06 11:43 | 50.13499 | 8.53469 | 9865 ft | 308 kts | 70° |
| 2026-05-06 11:43 | 50.14243 | 8.56582 | 9861 ft | 307 kts | 70° |
| 2026-05-06 11:43 | 50.14981 | 8.59682 | 9869 ft | 308 kts | 70° |
| 2026-05-06 11:44 | 50.16483 | 8.65997 | 9863 ft | 306 kts | 71° |
| 2026-05-06 11:44 | 50.17218 | 8.69092 | 9847 ft | 307 kts | 71° |
| 2026-05-06 11:44 | 50.17961 | 8.72221 | 9853 ft | 307 kts | 71° |
| 2026-05-06 11:44 | 50.18702 | 8.75349 | 9837 ft | 307 kts | 71° |
| 2026-05-06 11:45 | 50.19439 | 8.78466 | 9834 ft | 306 kts | 71° |
| 2026-05-06 11:45 | 50.20169 | 8.81562 | 9836 ft | 307 kts | 71° |
| 2026-05-06 11:45 | 50.20901 | 8.84669 | 9837 ft | 306 kts | 71° |
| 2026-05-06 11:45 | 50.21637 | 8.87801 | 9841 ft | 306 kts | 71° |
| 2026-05-06 11:46 | 50.22376 | 8.90951 | 9826 ft | 307 kts | 71° |
| 2026-05-06 11:46 | 50.23106 | 8.94068 | 9827 ft | 307 kts | 71° |
| 2026-05-06 11:46 | 50.23840 | 8.97204 | 9837 ft | 308 kts | 71° |
| 2026-05-06 11:46 | 50.24578 | 9.00360 | 9832 ft | 308 kts | 71° |
| 2026-05-06 11:47 | 50.25308 | 9.03487 | 9846 ft | 308 kts | 71° |
| 2026-05-06 11:47 | 50.26035 | 9.06612 | 9825 ft | 308 kts | 71° |
| 2026-05-06 11:47 | 50.26770 | 9.09770 | 9844 ft | 308 kts | 71° |
| 2026-05-06 11:47 | 50.27506 | 9.12941 | 9831 ft | 308 kts | 71° |
| 2026-05-06 11:48 | 50.28230 | 9.16061 | 9825 ft | 308 kts | 71° |
| 2026-05-06 11:48 | 50.28956 | 9.19198 | 9831 ft | 308 kts | 71° |
| 2026-05-06 11:48 | 50.29681 | 9.22331 | 9832 ft | 307 kts | 71° |
| 2026-05-06 11:48 | 50.30412 | 9.25497 | 9840 ft | 308 kts | 71° |
| 2026-05-06 11:49 | 50.31132 | 9.28624 | 9823 ft | 307 kts | 71° |
| 2026-05-06 11:49 | 50.31741 | 9.31845 | 9818 ft | 305 kts | 88° |
| 2026-05-06 11:49 | 50.31391 | 9.34998 | 9854 ft | 297 kts | 120° |
| 2026-05-06 11:49 | 50.30073 | 9.37388 | 9854 ft | 287 kts | 151° |
| 2026-05-06 11:50 | 50.28288 | 9.38761 | 9847 ft | 284 kts | 163° |
| 2026-05-06 11:50 | 50.26384 | 9.39005 | 9845 ft | 275 kts | 196° |
| 2026-05-06 11:50 | 50.24777 | 9.37594 | 9854 ft | 271 kts | 228° |
| 2026-05-06 11:50 | 50.23855 | 9.35041 | 9857 ft | 272 kts | 246° |
| 2026-05-06 11:51 | 50.23168 | 9.32294 | 9841 ft | 272 kts | 248° |
| 2026-05-06 11:51 | 50.22506 | 9.29533 | 9833 ft | 272 kts | 248° |
| 2026-05-06 11:51 | 50.21857 | 9.26775 | 9834 ft | 272 kts | 248° |
| 2026-05-06 11:51 | 50.21204 | 9.23977 | 9853 ft | 273 kts | 248° |
| 2026-05-06 11:52 | 50.20547 | 9.21152 | 9888 ft | 292 kts | 248° |
| 2026-05-06 11:52 | 50.19835 | 9.18087 | 9307 ft | 303 kts | 249° |
| 2026-05-06 11:52 | 50.19139 | 9.15089 | 8303 ft | 290 kts | 249° |
| 2026-05-06 11:52 | 50.18486 | 9.12279 | 7816 ft | 267 kts | 249° |
| 2026-05-06 11:53 | 50.17868 | 9.09628 | 7499 ft | 253 kts | 249° |
| 2026-05-06 11:53 | 50.17285 | 9.07128 | 7172 ft | 239 kts | 249° |
| 2026-05-06 11:53 | 50.16740 | 9.04799 | 6913 ft | 222 kts | 249° |
| 2026-05-06 11:53 | 50.16218 | 9.02572 | 6695 ft | 217 kts | 250° |
| 2026-05-06 11:54 | 50.15683 | 9.00349 | 6521 ft | 220 kts | 250° |
| 2026-05-06 11:54 | 50.15153 | 8.98095 | 6265 ft | 223 kts | 250° |
| 2026-05-06 11:54 | 50.14635 | 8.95855 | 6000 ft | 220 kts | 250° |
| 2026-05-06 11:54 | 50.14111 | 8.93604 | 5726 ft | 219 kts | 250° |
| 2026-05-06 11:55 | 50.13595 | 8.91399 | 5499 ft | 216 kts | 250° |
| 2026-05-06 11:55 | 50.13083 | 8.89215 | 5326 ft | 215 kts | 250° |
| 2026-05-06 11:55 | 50.12565 | 8.87014 | 5111 ft | 213 kts | 250° |
| 2026-05-06 11:55 | 50.12073 | 8.84924 | 5034 ft | 195 kts | 250° |
| 2026-05-06 11:56 | 50.11636 | 8.83071 | 5089 ft | 172 kts | 250° |
| 2026-05-06 11:56 | 50.11233 | 8.81363 | 4896 ft | 169 kts | 250° |
| 2026-05-06 11:56 | 50.10815 | 8.79593 | 4365 ft | 183 kts | 250° |
| 2026-05-06 11:56 | 50.10371 | 8.77712 | 3875 ft | 184 kts | 250° |
| 2026-05-06 11:57 | 50.09938 | 8.75884 | 3611 ft | 178 kts | 250° |
| 2026-05-06 11:57 | 50.09515 | 8.74097 | 3380 ft | 173 kts | 251° |
| 2026-05-06 11:57 | 50.09099 | 8.72345 | 3092 ft | 172 kts | 251° |
| 2026-05-06 11:57 | 50.08686 | 8.70603 | 2818 ft | 170 kts | 251° |
| 2026-05-06 11:58 | 50.08282 | 8.68901 | 2572 ft | 167 kts | 251° |
| 2026-05-06 11:58 | 50.07884 | 8.67225 | 2340 ft | 163 kts | 251° |
| 2026-05-06 11:58 | 50.07512 | 8.65662 | 2142 ft | 145 kts | 251° |
| 2026-05-06 11:58 | 50.07180 | 8.64266 | 1941 ft | 129 kts | 251° |
| 2026-05-06 11:59 | 50.06887 | 8.63039 | 1732 ft | 116 kts | 251° |
| 2026-05-06 11:59 | 50.06614 | 8.61890 | 1545 ft | 113 kts | 251° |
| 2026-05-06 11:59 | 50.06337 | 8.60728 | 1416 ft | 115 kts | 250° |
| 2026-05-06 11:59 | 50.06054 | 8.59538 | 1275 ft | 118 kts | 250° |
| 2026-05-06 12:00 | 50.05765 | 8.58327 | 1113 ft | 118 kts | 250° |
| 2026-05-06 12:00 | 50.05480 | 8.57131 | 942 ft | 118 kts | 249° |
| 2026-05-06 12:00 | 50.05211 | 8.56007 | 783 ft | 117 kts | 250° |
| 2026-05-06 12:00 | 50.04979 | 8.55043 | 646 ft | 118 kts | 249° |
| 2026-05-06 12:01 | 50.04700 | 8.53841 | 460 ft | 118 kts | 249° |
| 2026-05-06 12:01 | 50.04419 | 8.52665 | 355 ft | 112 kts | 248° |
| 2026-05-06 12:01 | 50.04230 | 8.51902 | 352 ft | 79 kts | 251° |
| 2026-05-06 12:01 | 50.04084 | 8.51289 | 352 ft | 59 kts | 249° |
| 2026-05-06 12:02 | 50.03989 | 8.50898 | 351 ft | 25 kts | 250° |
| 2026-05-06 12:02 | 50.03927 | 8.50641 | 351 ft | 25 kts | 251° |
| 2026-05-06 12:02 | 50.03841 | 8.50409 | 351 ft | 24 kts | 230° |
| 2026-05-06 12:02 | 50.03738 | 8.50260 | 351 ft | 12 kts | 221° |
| 2026-05-06 12:03 | 50.03677 | 8.50189 | 351 ft | 8 kts | 194° |
| 2026-05-06 12:03 | 50.03625 | 8.50234 | 351 ft | 9 kts | 114° |
| 2026-05-06 12:03 | 50.03638 | 8.50334 | 351 ft | 10 kts | 65° |
| 2026-05-06 12:03 | 50.03662 | 8.50441 | 351 ft | 10 kts | 72° |
| 2026-05-06 12:04 | 50.03693 | 8.50576 | 351 ft | 16 kts | 66° |